Time;durP1;ratioP1;P1;durP2;ratioP2;P2;SDS_P1;SDS_P2;PMS_P1;PMS_P2;Temp;Humidity;BMP_temperature;BMP_pressure;BME280_temperature;BME280_humidity;BME280_pressure;Samples;Min_cycle;Max_cycle;Signal;HPM_P1;HPM_P2
2024/04/02 00:01:01;;;;;;;0.20;0.10;;;;;;;;;;5100600;27;20193;-67
2024/04/02 00:03:27;;;;;;;0.20;0.10;;;;;;;;;;5109538;28;20256;-67
2024/04/02 00:05:54;;;;;;;0.20;0.10;;;;;;;;;;5103371;28;20593;-67
2024/04/02 00:08:20;;;;;;;0.20;0.10;;;;;;;;;;5110650;28;20249;-67
2024/04/02 00:10:46;;;;;;;0.20;0.10;;;;;;;;;;5110086;28;20284;-67
2024/04/02 00:13:12;;;;;;;0.20;0.08;;;;;;;;;;5110917;28;20216;-67
2024/04/02 00:15:38;;;;;;;0.20;0.10;;;;;;;;;;5109982;28;20712;-67
2024/04/02 00:18:04;;;;;;;0.20;0.10;;;;;;;;;;5111703;27;20189;-67
2024/04/02 00:20:30;;;;;;;0.20;0.10;;;;;;;;;;5110410;28;20701;-68
2024/04/02 00:22:56;;;;;;;0.20;0.10;;;;;;;;;;5115643;27;20181;-68
2024/04/02 00:25:22;;;;;;;0.20;0.10;;;;;;;;;;5107486;28;20538;-68
2024/04/02 00:27:48;;;;;;;0.20;0.10;;;;;;;;;;5109230;28;20188;-67
2024/04/02 00:30:24;;;;;;;0.20;0.10;;;;;;;;;;5110023;28;20252;-68
2024/04/02 00:32:50;;;;;;;0.20;0.10;;;;;;;;;;5103500;27;20326;-67
2024/04/02 00:35:16;;;;;;;0.20;0.10;;;;;;;;;;5109961;28;20260;-67
2024/04/02 00:37:42;;;;;;;0.20;0.00;;;;;;;;;;5109969;28;20185;-67
2024/04/02 00:40:08;;;;;;;0.20;0.10;;;;;;;;;;5107410;28;20174;-67
2024/04/02 00:42:34;;;;;;;0.20;0.08;;;;;;;;;;5109832;28;21036;-67
2024/04/02 00:45:00;;;;;;;0.20;0.00;;;;;;;;;;5105720;28;20174;-68
2024/04/02 00:47:26;;;;;;;0.20;0.10;;;;;;;;;;5109461;28;20189;-68
2024/04/02 00:49:54;;;;;;;0.20;0.10;;;;;;;;;;5108047;27;20177;-68
2024/04/02 00:52:20;;;;;;;0.20;0.10;;;;;;;;;;5105229;28;20182;-68
2024/04/02 00:54:46;;;;;;;0.20;0.10;;;;;;;;;;5105551;28;20723;-67
2024/04/02 00:57:12;;;;;;;0.20;0.10;;;;;;;;;;5104943;28;20618;-68
2024/04/02 00:59:38;;;;;;;0.20;0.10;;;;;;;;;;5099262;28;20177;-67
2024/04/02 01:02:04;;;;;;;0.20;0.03;;;;;;;;;;5099698;28;20246;-67
2024/04/02 01:04:30;;;;;;;0.20;0.10;;;;;;;;;;5101258;27;20603;-67
2024/04/02 01:06:57;;;;;;;0.20;0.08;;;;;;;;;;5102980;28;20200;-68
2024/04/02 01:09:23;;;;;;;0.20;0.00;;;;;;;;;;5109499;28;20674;-67
2024/04/02 01:11:50;;;;;;;0.20;0.10;;;;;;;;;;5108593;28;20756;-68
2024/04/02 01:14:16;;;;;;;0.20;0.10;;;;;;;;;;5109376;28;20205;-67
2024/04/02 01:16:42;;;;;;;0.20;0.10;;;;;;;;;;5108779;28;20173;-67
2024/04/02 01:19:08;;;;;;;0.20;0.10;;;;;;;;;;5111396;27;20599;-67
2024/04/02 01:21:34;;;;;;;0.20;0.10;;;;;;;;;;5108221;28;20190;-67
2024/04/02 01:24:00;;;;;;;0.20;0.10;;;;;;;;;;5109123;28;20208;-67
2024/04/02 01:26:26;;;;;;;0.20;0.10;;;;;;;;;;5109216;28;20185;-67
2024/04/02 01:28:58;;;;;;;0.20;0.10;;;;;;;;;;5108118;28;20173;-67
2024/04/02 01:31:27;;;;;;;0.20;0.10;;;;;;;;;;5109098;28;20539;-67
2024/04/02 01:33:53;;;;;;;0.20;0.10;;;;;;;;;;5102560;27;20289;-67
2024/04/02 01:36:19;;;;;;;0.20;0.10;;;;;;;;;;5103994;27;20173;-67
2024/04/02 01:38:45;;;;;;;0.20;0.10;;;;;;;;;;5106023;28;20185;-67
2024/04/02 01:41:11;;;;;;;0.20;0.10;;;;;;;;;;5101346;28;20204;-67
2024/04/02 01:43:37;;;;;;;0.20;0.10;;;;;;;;;;5107938;28;20190;-67
2024/04/02 01:46:03;;;;;;;0.20;0.08;;;;;;;;;;5104090;28;20176;-67
2024/04/02 01:48:29;;;;;;;0.20;0.10;;;;;;;;;;5108416;28;20170;-67
2024/04/02 01:50:55;;;;;;;0.20;0.10;;;;;;;;;;5106580;28;20206;-67
2024/04/02 01:53:21;;;;;;;0.20;0.10;;;;;;;;;;5110222;27;20606;-67
2024/04/02 01:55:47;;;;;;;0.20;0.10;;;;;;;;;;5107582;28;20536;-67
2024/04/02 01:58:13;;;;;;;0.20;0.10;;;;;;;;;;5108022;28;20170;-67
2024/04/02 02:00:39;;;;;;;0.20;0.10;;;;;;;;;;5107546;28;20197;-67
2024/04/02 02:03:05;;;;;;;0.20;0.10;;;;;;;;;;5108652;28;20189;-67
2024/04/02 02:05:32;;;;;;;0.20;0.10;;;;;;;;;;5109397;27;20264;-67
2024/04/02 02:07:58;;;;;;;0.20;0.10;;;;;;;;;;5107612;28;20189;-66
2024/04/02 02:10:23;;;;;;;0.20;0.10;;;;;;;;;;5108474;28;20871;-67
2024/04/02 02:12:49;;;;;;;0.20;0.10;;;;;;;;;;5108012;28;20196;-67
2024/04/02 02:15:16;;;;;;;0.20;0.10;;;;;;;;;;5108097;28;20696;-66
2024/04/02 02:17:45;;;;;;;0.20;0.10;;;;;;;;;;5108368;28;20173;-66
2024/04/02 02:20:11;;;;;;;0.20;0.10;;;;;;;;;;5104889;28;20186;-66
2024/04/02 02:22:37;;;;;;;0.20;0.10;;;;;;;;;;5104599;28;20177;-66
2024/04/02 02:25:03;;;;;;;0.20;0.10;;;;;;;;;;5107546;28;20192;-66
2024/04/02 02:27:29;;;;;;;0.20;0.10;;;;;;;;;;5108507;28;20196;-66
2024/04/02 02:29:55;;;;;;;0.20;0.03;;;;;;;;;;5107591;28;20586;-66
2024/04/02 02:32:21;;;;;;;0.20;0.10;;;;;;;;;;5107852;28;20173;-67
2024/04/02 02:34:47;;;;;;;0.20;0.10;;;;;;;;;;5091944;28;20264;-66
2024/04/02 02:37:13;;;;;;;0.20;0.05;;;;;;;;;;5102876;28;20608;-67
2024/04/02 02:39:39;;;;;;;0.20;0.10;;;;;;;;;;5107778;28;20193;-66
2024/04/02 02:42:05;;;;;;;0.20;0.10;;;;;;;;;;5107436;28;20205;-68
2024/04/02 02:44:31;;;;;;;0.20;0.10;;;;;;;;;;5107692;28;20178;-67
2024/04/02 02:46:59;;;;;;;0.20;0.10;;;;;;;;;;5106657;28;20219;-67
2024/04/02 02:49:25;;;;;;;0.20;0.10;;;;;;;;;;5104213;27;20193;-67
2024/04/02 02:51:51;;;;;;;0.20;0.10;;;;;;;;;;5105043;28;20561;-67
2024/04/02 02:54:17;;;;;;;0.20;0.10;;;;;;;;;;5105572;28;20230;-67
2024/04/02 02:56:43;;;;;;;0.20;0.10;;;;;;;;;;5107335;28;20180;-67
2024/04/02 02:59:09;;;;;;;0.20;0.08;;;;;;;;;;5103178;28;20209;-67
2024/04/02 03:01:35;;;;;;;0.20;0.10;;;;;;;;;;5107418;28;20267;-68
2024/04/02 03:04:01;;;;;;;0.20;0.10;;;;;;;;;;5107227;28;20169;-68
2024/04/02 03:06:27;;;;;;;0.20;0.10;;;;;;;;;;5104306;28;20239;-67
2024/04/02 03:08:52;;;;;;;0.20;0.10;;;;;;;;;;5106449;28;20180;-68
2024/04/02 03:11:18;;;;;;;0.20;0.10;;;;;;;;;;5103198;28;20212;-67
2024/04/02 03:13:44;;;;;;;0.20;0.10;;;;;;;;;;5106599;28;20205;-68
2024/04/02 03:16:10;;;;;;;0.20;0.10;;;;;;;;;;5101650;28;20653;-67
2024/04/02 03:18:36;;;;;;;0.20;0.10;;;;;;;;;;5107050;28;20197;-68
2024/04/02 03:21:04;;;;;;;0.20;0.10;;;;;;;;;;5105944;28;20204;-68
2024/04/02 03:23:30;;;;;;;0.20;0.10;;;;;;;;;;5106948;28;20177;-67
2024/04/02 03:25:58;;;;;;;0.20;0.00;;;;;;;;;;5106175;28;20617;-67
2024/04/02 03:28:26;;;;;;;0.20;0.10;;;;;;;;;;5107667;28;20297;-67
2024/04/02 03:30:56;;;;;;;0.20;0.00;;;;;;;;;;5106840;28;20193;-68
2024/04/02 03:33:22;;;;;;;0.20;0.10;;;;;;;;;;5107149;28;20200;-67
2024/04/02 03:35:48;;;;;;;0.20;0.10;;;;;;;;;;5106488;28;20177;-67
2024/04/02 03:38:14;;;;;;;0.20;0.10;;;;;;;;;;5106917;28;20173;-68
2024/04/02 03:40:40;;;;;;;0.20;0.10;;;;;;;;;;5107263;28;20842;-67
2024/04/02 03:43:06;;;;;;;0.20;0.10;;;;;;;;;;5105591;28;20177;-67
2024/04/02 03:45:38;;;;;;;0.20;0.10;;;;;;;;;;5103511;28;20556;-68
2024/04/02 03:48:05;;;;;;;0.20;0.10;;;;;;;;;;5106448;28;20312;-67
2024/04/02 03:50:31;;;;;;;0.20;0.10;;;;;;;;;;5105631;28;20224;-67
2024/04/02 03:52:57;;;;;;;0.20;0.10;;;;;;;;;;5106162;28;20259;-67
2024/04/02 03:55:23;;;;;;;0.20;0.10;;;;;;;;;;5106234;28;20166;-67
2024/04/02 03:57:49;;;;;;;0.20;0.10;;;;;;;;;;5104063;28;20637;-68
2024/04/02 04:00:15;;;;;;;0.20;0.10;;;;;;;;;;5105885;28;20201;-67
2024/04/02 04:02:40;;;;;;;0.20;0.03;;;;;;;;;;5101727;28;20199;-67
2024/04/02 04:05:07;;;;;;;0.20;0.10;;;;;;;;;;5103810;28;20957;-67
2024/04/02 04:07:32;;;;;;;0.20;0.10;;;;;;;;;;5105205;28;20193;-68
2024/04/02 04:09:59;;;;;;;0.20;0.10;;;;;;;;;;5106488;28;20253;-68
2024/04/02 04:12:24;;;;;;;0.20;0.10;;;;;;;;;;5106849;28;20938;-68
2024/04/02 04:14:51;;;;;;;0.20;0.10;;;;;;;;;;5106324;28;20201;-67
2024/04/02 04:17:17;;;;;;;0.20;0.00;;;;;;;;;;5107691;28;20277;-67
2024/04/02 04:19:43;;;;;;;0.20;0.00;;;;;;;;;;5107587;28;20249;-68
2024/04/02 04:22:09;;;;;;;0.20;0.10;;;;;;;;;;5107540;28;20239;-67
2024/04/02 04:24:35;;;;;;;0.20;0.10;;;;;;;;;;5111105;28;20182;-67
2024/04/02 04:27:01;;;;;;;0.20;0.10;;;;;;;;;;5107684;27;20693;-67
2024/04/02 04:29:27;;;;;;;0.20;0.10;;;;;;;;;;5118708;27;20185;-67
2024/04/02 04:31:53;;;;;;;0.20;0.00;;;;;;;;;;5109127;28;20205;-67
2024/04/02 04:34:19;;;;;;;0.20;0.10;;;;;;;;;;5110744;28;20572;-67
2024/04/02 04:36:45;;;;;;;0.20;0.10;;;;;;;;;;5109820;28;20178;-68
2024/04/02 04:39:11;;;;;;;0.20;0.10;;;;;;;;;;5109965;28;20230;-67
2024/04/02 04:41:37;;;;;;;0.20;0.10;;;;;;;;;;5109748;28;20196;-67
2024/04/02 04:44:03;;;;;;;0.20;0.10;;;;;;;;;;5109910;28;20276;-68
2024/04/02 04:46:30;;;;;;;0.20;0.10;;;;;;;;;;5109697;28;20170;-67
2024/04/02 04:48:56;;;;;;;0.20;0.10;;;;;;;;;;5110682;27;20173;-67
2024/04/02 04:51:22;;;;;;;0.20;0.10;;;;;;;;;;5109856;28;20580;-68
2024/04/02 04:53:48;;;;;;;0.20;0.10;;;;;;;;;;5110311;28;20198;-68
2024/04/02 04:56:14;;;;;;;0.20;0.10;;;;;;;;;;5109485;28;20211;-68
2024/04/02 04:58:40;;;;;;;0.20;0.10;;;;;;;;;;5112780;27;20211;-68
2024/04/02 05:01:06;;;;;;;0.20;0.10;;;;;;;;;;5106336;27;20556;-68
2024/04/02 05:03:32;;;;;;;0.20;0.10;;;;;;;;;;5101913;27;20197;-68
2024/04/02 05:06:05;;;;;;;0.20;0.10;;;;;;;;;;5110278;28;20227;-68
2024/04/02 05:08:35;;;;;;;0.20;0.10;;;;;;;;;;5109562;28;20186;-68
2024/04/02 05:11:02;;;;;;;0.20;0.10;;;;;;;;;;5106777;28;20678;-68
2024/04/02 05:13:28;;;;;;;0.20;0.10;;;;;;;;;;5102423;28;20200;-68
2024/04/02 05:15:54;;;;;;;0.20;0.10;;;;;;;;;;5099088;28;20185;-68
2024/04/02 05:18:20;;;;;;;0.20;0.00;;;;;;;;;;5109586;27;20177;-68
2024/04/02 05:20:46;;;;;;;0.20;0.10;;;;;;;;;;5108309;28;20640;-68
2024/04/02 05:23:13;;;;;;;0.20;0.03;;;;;;;;;;5103237;28;20222;-68
2024/04/02 05:25:40;;;;;;;0.20;0.10;;;;;;;;;;5107824;28;20169;-68
2024/04/02 05:28:06;;;;;;;0.20;0.05;;;;;;;;;;5107459;28;20182;-68
2024/04/02 05:30:32;;;;;;;0.20;0.10;;;;;;;;;;5108728;27;20540;-68
2024/04/02 05:32:58;;;;;;;0.20;0.10;;;;;;;;;;5099747;28;20198;-68
2024/04/02 05:35:24;;;;;;;0.20;0.10;;;;;;;;;;5097150;28;20169;-68
2024/04/02 05:37:53;;;;;;;0.20;0.10;;;;;;;;;;5105627;27;20174;-68
2024/04/02 05:40:20;;;;;;;0.20;0.10;;;;;;;;;;5100437;28;20196;-68
2024/04/02 05:42:46;;;;;;;0.20;0.10;;;;;;;;;;5108530;28;20264;-68
2024/04/02 05:45:13;;;;;;;0.20;0.10;;;;;;;;;;5105915;28;20732;-68
2024/04/02 05:47:39;;;;;;;0.20;0.05;;;;;;;;;;5103611;28;20184;-68
2024/04/02 05:50:05;;;;;;;0.20;0.10;;;;;;;;;;5108332;27;20677;-68
2024/04/02 05:52:31;;;;;;;0.20;0.10;;;;;;;;;;5107270;28;20657;-68
2024/04/02 05:54:57;;;;;;;0.20;0.10;;;;;;;;;;5106828;28;20169;-68
2024/04/02 05:57:23;;;;;;;0.20;0.10;;;;;;;;;;5105894;28;20208;-68
2024/04/02 05:59:52;;;;;;;0.20;0.10;;;;;;;;;;5107868;28;20689;-68
2024/04/02 06:02:19;;;;;;;0.20;0.10;;;;;;;;;;5103370;28;20669;-68
2024/04/02 06:04:46;;;;;;;0.20;0.10;;;;;;;;;;5105452;28;20199;-68
2024/04/02 06:07:12;;;;;;;0.20;0.00;;;;;;;;;;5108227;28;20623;-68
2024/04/02 06:09:38;;;;;;;0.20;0.10;;;;;;;;;;5107942;27;20182;-68
2024/04/02 06:12:05;;;;;;;0.20;0.10;;;;;;;;;;5106719;28;20209;-68
2024/04/02 06:14:31;;;;;;;0.20;0.00;;;;;;;;;;5106304;28;20584;-67
2024/04/02 06:16:58;;;;;;;0.20;0.10;;;;;;;;;;5097979;27;20189;-68
2024/04/02 06:19:24;;;;;;;0.20;0.08;;;;;;;;;;5106526;28;20174;-68
2024/04/02 06:21:50;;;;;;;0.20;0.10;;;;;;;;;;5110680;27;20572;-68
2024/04/02 06:24:16;;;;;;;0.20;0.10;;;;;;;;;;5106934;28;20177;-68
2024/04/02 06:26:42;;;;;;;0.20;0.10;;;;;;;;;;5107301;27;20580;-68
2024/04/02 06:29:08;;;;;;;0.20;0.10;;;;;;;;;;5105895;28;20186;-67
2024/04/02 06:31:34;;;;;;;0.20;0.10;;;;;;;;;;5098914;28;20581;-67
2024/04/02 06:34:00;;;;;;;0.20;0.10;;;;;;;;;;5104624;28;20293;-68
2024/04/02 06:36:26;;;;;;;0.20;0.10;;;;;;;;;;5106261;28;20169;-67
2024/04/02 06:38:52;;;;;;;0.20;0.00;;;;;;;;;;5102354;28;20268;-67
2024/04/02 06:41:18;;;;;;;0.20;0.10;;;;;;;;;;5094368;28;20206;-68
2024/04/02 06:43:44;;;;;;;0.20;0.10;;;;;;;;;;5105997;28;20177;-68
2024/04/02 06:46:10;;;;;;;0.20;0.10;;;;;;;;;;5106366;28;20598;-68
2024/04/02 06:48:36;;;;;;;0.20;0.03;;;;;;;;;;5107244;27;20282;-68
2024/04/02 06:51:10;;;;;;;0.20;0.10;;;;;;;;;;5108481;28;20680;-68
2024/04/02 06:53:36;;;;;;;0.20;0.10;;;;;;;;;;5102515;28;20193;-67
2024/04/02 06:56:04;;;;;;;0.20;0.10;;;;;;;;;;5105727;28;20177;-68
2024/04/02 06:58:30;;;;;;;0.20;0.10;;;;;;;;;;5105504;28;20228;-68
2024/04/02 07:00:56;;;;;;;0.20;0.10;;;;;;;;;;5107590;28;20193;-68
2024/04/02 07:03:23;;;;;;;0.20;0.10;;;;;;;;;;5105976;28;20177;-68
2024/04/02 07:05:51;;;;;;;0.20;0.10;;;;;;;;;;5105222;28;20192;-69
2024/04/02 07:08:17;;;;;;;0.20;0.10;;;;;;;;;;5101772;28;21516;-68
2024/04/02 07:10:44;;;;;;;0.20;0.10;;;;;;;;;;5107558;28;20201;-68
2024/04/02 07:13:11;;;;;;;0.20;0.10;;;;;;;;;;5097949;28;20232;-68
2024/04/02 07:15:37;;;;;;;0.20;0.00;;;;;;;;;;5097491;28;20265;-68
2024/04/02 07:18:04;;;;;;;0.20;0.10;;;;;;;;;;5103020;28;20185;-68
2024/04/02 07:20:30;;;;;;;0.20;0.10;;;;;;;;;;5103947;28;20192;-68
2024/04/02 07:22:56;;;;;;;0.20;0.10;;;;;;;;;;5102142;28;20181;-68
2024/04/02 07:25:22;;;;;;;0.20;0.10;;;;;;;;;;5099021;28;20177;-68
2024/04/02 07:27:48;;;;;;;0.20;0.03;;;;;;;;;;5109517;28;20193;-68
2024/04/02 07:30:14;;;;;;;0.20;0.10;;;;;;;;;;5114962;28;20185;-68
2024/04/02 07:32:40;;;;;;;0.20;0.10;;;;;;;;;;5106522;28;20184;-68
2024/04/02 07:35:06;;;;;;;0.20;0.10;;;;;;;;;;5105302;28;20173;-68
2024/04/02 07:37:32;;;;;;;0.20;0.10;;;;;;;;;;5107575;28;20192;-68
2024/04/02 07:39:59;;;;;;;0.20;0.10;;;;;;;;;;5107352;28;20176;-68
2024/04/02 07:42:25;;;;;;;0.20;0.10;;;;;;;;;;5096215;28;20329;-68
2024/04/02 07:44:51;;;;;;;0.20;0.10;;;;;;;;;;5107135;28;20181;-68
2024/04/02 07:47:17;;;;;;;0.20;0.10;;;;;;;;;;5102717;28;20188;-71
2024/04/02 07:49:43;;;;;;;0.20;0.00;;;;;;;;;;5109290;28;20560;-70
2024/04/02 07:52:09;;;;;;;0.20;0.10;;;;;;;;;;5104698;28;20201;-69
2024/04/02 07:54:35;;;;;;;0.20;0.10;;;;;;;;;;5107133;28;20943;-71
2024/04/02 07:57:01;;;;;;;0.20;0.10;;;;;;;;;;5104010;28;20174;-72
2024/04/02 07:59:27;;;;;;;0.20;0.10;;;;;;;;;;5109414;28;20303;-72
2024/04/02 08:01:53;;;;;;;0.20;0.10;;;;;;;;;;5111281;28;20907;-71
2024/04/02 08:04:20;;;;;;;0.20;0.10;;;;;;;;;;5108548;28;20185;-72
2024/04/02 08:06:46;;;;;;;0.20;0.10;;;;;;;;;;5108991;28;20199;-71
2024/04/02 08:09:12;;;;;;;0.20;0.10;;;;;;;;;;5106024;28;20185;-71
2024/04/02 08:11:38;;;;;;;0.20;0.10;;;;;;;;;;5107683;28;20201;-70
2024/04/02 08:14:04;;;;;;;0.20;0.10;;;;;;;;;;5110402;28;20673;-71
2024/04/02 08:16:32;;;;;;;0.20;0.10;;;;;;;;;;5110874;28;20170;-72
2024/04/02 08:18:58;;;;;;;0.20;0.10;;;;;;;;;;5112227;28;20177;-72
2024/04/02 08:21:24;;;;;;;0.20;0.10;;;;;;;;;;5112349;28;20209;-70
2024/04/02 08:23:50;;;;;;;0.20;0.10;;;;;;;;;;5113085;28;20183;-72
2024/04/02 08:26:16;;;;;;;0.20;0.10;;;;;;;;;;5104909;28;20284;-71
2024/04/02 08:28:42;;;;;;;0.20;0.10;;;;;;;;;;5102010;28;20178;-72
2024/04/02 08:31:08;;;;;;;0.20;0.10;;;;;;;;;;5111870;28;20619;-74
2024/04/02 08:33:34;;;;;;;0.20;0.10;;;;;;;;;;5113382;28;20224;-70
2024/04/02 08:36:00;;;;;;;0.20;0.10;;;;;;;;;;5103221;27;20178;-68
2024/04/02 08:38:26;;;;;;;0.20;0.10;;;;;;;;;;5099637;28;20708;-66
2024/04/02 08:40:54;;;;;;;0.20;0.10;;;;;;;;;;5109882;28;20220;-67
2024/04/02 08:43:21;;;;;;;0.20;0.10;;;;;;;;;;5103124;28;20173;-69
2024/04/02 08:45:47;;;;;;;0.20;0.05;;;;;;;;;;5110285;28;20190;-68
2024/04/02 08:48:14;;;;;;;0.20;0.10;;;;;;;;;;5111021;27;20196;-67
2024/04/02 08:50:41;;;;;;;0.20;0.10;;;;;;;;;;5109401;28;20201;-69
2024/04/02 08:53:07;;;;;;;0.20;0.10;;;;;;;;;;5109798;28;20561;-69
2024/04/02 08:55:35;;;;;;;0.20;0.10;;;;;;;;;;5100212;27;20181;-69
2024/04/02 08:58:03;;;;;;;0.20;0.10;;;;;;;;;;5109005;28;20208;-69
2024/04/02 09:00:30;;;;;;;0.20;0.10;;;;;;;;;;5108932;28;20273;-69
2024/04/02 09:02:56;;;;;;;0.20;0.10;;;;;;;;;;5108801;28;20202;-66
2024/04/02 09:05:23;;;;;;;0.20;0.10;;;;;;;;;;5108089;28;20182;-67
2024/04/02 09:07:49;;;;;;;0.20;0.10;;;;;;;;;;5109219;28;20205;-69
2024/04/02 09:10:15;;;;;;;0.20;0.10;;;;;;;;;;5108557;28;20268;-68
2024/04/02 09:12:41;;;;;;;0.20;0.10;;;;;;;;;;5104105;28;20174;-69
2024/04/02 09:15:07;;;;;;;0.20;0.10;;;;;;;;;;5103692;28;20226;-68
2024/04/02 09:17:33;;;;;;;0.20;0.10;;;;;;;;;;5102442;28;20189;-70
2024/04/02 09:19:59;;;;;;;0.20;0.10;;;;;;;;;;5111436;27;20177;-69
2024/04/02 09:22:25;;;;;;;0.20;0.08;;;;;;;;;;5109035;28;20201;-70
2024/04/02 09:24:51;;;;;;;0.20;0.10;;;;;;;;;;5108881;28;20176;-69
2024/04/02 09:27:19;;;;;;;0.20;0.10;;;;;;;;;;5104469;28;20926;-68
2024/04/02 09:29:45;;;;;;;0.20;0.10;;;;;;;;;;5108348;28;20201;-70
2024/04/02 09:32:11;;;;;;;0.20;0.10;;;;;;;;;;5103862;28;20795;-69
2024/04/02 09:34:37;;;;;;;0.20;0.10;;;;;;;;;;5108645;28;20208;-70
2024/04/02 09:37:16;;;;;;;0.20;0.10;;;;;;;;;;5100901;28;20267;-67
2024/04/02 09:39:42;;;;;;;0.20;0.10;;;;;;;;;;5105296;28;20861;-68
2024/04/02 09:42:11;;;;;;;0.20;0.10;;;;;;;;;;5105008;28;20216;-69
2024/04/02 09:44:40;;;;;;;0.20;0.10;;;;;;;;;;5101206;28;21014;-69
2024/04/02 09:47:06;;;;;;;0.20;0.10;;;;;;;;;;5108426;28;20645;-70
2024/04/02 09:49:33;;;;;;;0.20;0.10;;;;;;;;;;5110051;27;20188;-69
2024/04/02 09:51:59;;;;;;;0.20;0.10;;;;;;;;;;5109115;27;20716;-68
2024/04/02 09:54:25;;;;;;;0.20;0.10;;;;;;;;;;5108196;28;20197;-69
2024/04/02 09:56:52;;;;;;;0.20;0.10;;;;;;;;;;5108382;28;20198;-67
2024/04/02 09:59:18;;;;;;;0.20;0.10;;;;;;;;;;5108013;28;20193;-66
2024/04/02 10:01:44;;;;;;;0.20;0.10;;;;;;;;;;5102007;28;20334;-70
2024/04/02 10:04:14;;;;;;;0.20;0.10;;;;;;;;;;5108034;28;20181;-70
2024/04/02 10:06:41;;;;;;;0.20;0.10;;;;;;;;;;5108063;28;20189;-67
2024/04/02 10:09:12;;;;;;;0.20;0.10;;;;;;;;;;5107316;28;20195;-66
2024/04/02 10:11:38;;;;;;;0.20;0.10;;;;;;;;;;5108415;28;20278;-70
2024/04/02 10:14:06;;;;;;;0.20;0.10;;;;;;;;;;5107500;28;20873;-70
2024/04/02 10:16:33;;;;;;;0.20;0.10;;;;;;;;;;5107565;28;20174;-70
2024/04/02 10:19:02;;;;;;;0.20;0.10;;;;;;;;;;5108419;27;20186;-70
2024/04/02 10:21:33;;;;;;;0.20;0.10;;;;;;;;;;5108135;28;20197;-69
2024/04/02 10:23:59;;;;;;;0.20;0.20;;;;;;;;;;5108492;28;20186;-69
2024/04/02 10:26:37;;;;;;;0.20;0.13;;;;;;;;;;5106983;28;20201;-70
2024/04/02 10:29:03;;;;;;;0.20;0.15;;;;;;;;;;5100223;28;20211;-71
2024/04/02 10:31:36;;;;;;;0.20;0.10;;;;;;;;;;5103759;28;20212;-67
2024/04/02 10:34:05;;;;;;;0.20;0.10;;;;;;;;;;5103138;28;20690;-70
2024/04/02 10:36:31;;;;;;;0.20;0.10;;;;;;;;;;5105226;28;20177;-70
2024/04/02 10:38:57;;;;;;;0.20;0.10;;;;;;;;;;5105746;28;20166;-69
2024/04/02 10:41:23;;;;;;;0.20;0.10;;;;;;;;;;5104451;28;20668;-70
2024/04/02 10:43:49;;;;;;;0.20;0.10;;;;;;;;;;5093232;28;20190;-70
2024/04/02 10:46:16;;;;;;;0.20;0.10;;;;;;;;;;5106907;28;20178;-67
2024/04/02 10:48:42;;;;;;;0.20;0.10;;;;;;;;;;5107528;27;20173;-67
2024/04/02 10:51:09;;;;;;;0.20;0.10;;;;;;;;;;5111584;27;20246;-67
2024/04/02 10:53:35;;;;;;;0.20;0.10;;;;;;;;;;5101388;28;20239;-67
2024/04/02 10:56:02;;;;;;;0.20;0.10;;;;;;;;;;5108371;28;20205;-68
2024/04/02 10:58:28;;;;;;;0.20;0.10;;;;;;;;;;5107486;28;20208;-65
2024/04/02 11:00:54;;;;;;;0.20;0.10;;;;;;;;;;5108288;28;20193;-66
2024/04/02 11:03:21;;;;;;;0.20;0.10;;;;;;;;;;5107233;28;20270;-64
2024/04/02 11:05:47;;;;;;;0.20;0.10;;;;;;;;;;5103962;28;20538;-65
2024/04/02 11:08:13;;;;;;;0.20;0.10;;;;;;;;;;5107090;28;20622;-65
2024/04/02 11:10:49;;;;;;;0.20;0.10;;;;;;;;;;5104590;28;20194;-65
2024/04/02 11:13:24;;;;;;;0.20;0.10;;;;;;;;;;5104251;28;20266;-64
2024/04/02 11:15:51;;;;;;;0.20;0.10;;;;;;;;;;5103409;28;20362;-64
2024/04/02 11:18:21;;;;;;;0.20;0.10;;;;;;;;;;5105005;28;20652;-65
2024/04/02 11:20:47;;;;;;;0.20;0.10;;;;;;;;;;5106871;28;20185;-66
2024/04/02 11:26:08;;;;;;;0.20;0.10;;;;;;;;;;5103199;28;20184;-65
2024/04/02 11:28:34;;;;;;;0.20;0.10;;;;;;;;;;5108025;28;20173;-66
2024/04/02 11:31:02;;;;;;;0.20;0.10;;;;;;;;;;5104587;28;20203;-65
2024/04/02 11:33:28;;;;;;;0.20;0.10;;;;;;;;;;5111110;28;20200;-66
2024/04/02 11:35:59;;;;;;;0.20;0.10;;;;;;;;;;5106218;28;20250;-65
2024/04/02 11:38:25;;;;;;;0.20;0.10;;;;;;;;;;5106461;28;20174;-64
2024/04/02 11:40:52;;;;;;;0.20;0.10;;;;;;;;;;5109308;28;20201;-64
2024/04/02 11:43:18;;;;;;;0.20;0.10;;;;;;;;;;5105180;28;20177;-65
2024/04/02 11:45:44;;;;;;;0.20;0.10;;;;;;;;;;5098566;28;20178;-65
2024/04/02 11:48:10;;;;;;;0.20;0.10;;;;;;;;;;5112323;27;20184;-65
2024/04/02 11:50:36;;;;;;;0.20;0.00;;;;;;;;;;5110916;28;21068;-65
2024/04/02 11:53:02;;;;;;;0.20;0.10;;;;;;;;;;5110912;28;20170;-65
2024/04/02 11:55:28;;;;;;;0.20;0.10;;;;;;;;;;5100971;28;20177;-65
2024/04/02 12:00:39;;;;;;;0.20;0.10;;;;;;;;;;5110801;28;20209;-65
2024/04/02 12:03:05;;;;;;;0.20;0.10;;;;;;;;;;5109112;27;20193;-62
2024/04/02 12:05:32;;;;;;;0.20;0.10;;;;;;;;;;5120946;27;20850;-64
2024/04/02 12:07:58;;;;;;;0.20;0.10;;;;;;;;;;5107670;27;20197;-65
2024/04/02 12:10:24;;;;;;;0.20;0.10;;;;;;;;;;5110385;28;20177;-66
2024/04/02 12:12:52;;;;;;;0.20;0.10;;;;;;;;;;5108132;28;20181;-65
2024/04/02 12:15:18;;;;;;;0.20;0.10;;;;;;;;;;5110036;28;20260;-65
2024/04/02 12:17:44;;;;;;;0.20;0.10;;;;;;;;;;5108562;28;20189;-64
2024/04/02 12:20:12;;;;;;;0.20;0.10;;;;;;;;;;5110042;27;20815;-63
2024/04/02 12:22:38;;;;;;;0.20;0.10;;;;;;;;;;5109945;27;20172;-65
2024/04/02 12:25:04;;;;;;;0.20;0.10;;;;;;;;;;5110865;28;20276;-65
2024/04/02 12:27:30;;;;;;;0.20;0.10;;;;;;;;;;5110559;28;20565;-65
2024/04/02 12:30:00;;;;;;;0.20;0.10;;;;;;;;;;5106989;28;20189;-67
2024/04/02 12:32:28;;;;;;;0.20;0.10;;;;;;;;;;5109221;28;20392;-68
2024/04/02 12:34:54;;;;;;;0.20;0.10;;;;;;;;;;5107652;28;20634;-70
2024/04/02 12:37:20;;;;;;;0.20;0.10;;;;;;;;;;5109217;28;20205;-69
2024/04/02 12:39:47;;;;;;;0.20;0.08;;;;;;;;;;5108301;28;20180;-69
2024/04/02 12:42:13;;;;;;;0.20;0.10;;;;;;;;;;5109682;28;20220;-68
2024/04/02 12:44:40;;;;;;;0.20;0.10;;;;;;;;;;5100815;28;20190;-69
2024/04/02 12:47:06;;;;;;;0.20;0.10;;;;;;;;;;5101823;28;20210;-69
2024/04/02 12:49:32;;;;;;;0.20;0.10;;;;;;;;;;5108195;27;20209;-69
2024/04/02 12:51:58;;;;;;;0.20;0.10;;;;;;;;;;5109549;28;20197;-69
2024/04/02 12:54:24;;;;;;;0.20;0.10;;;;;;;;;;5108281;28;20631;-70
2024/04/02 12:56:50;;;;;;;0.20;0.10;;;;;;;;;;5097316;28;20686;-70
2024/04/02 12:59:16;;;;;;;0.20;0.10;;;;;;;;;;5095167;28;20527;-70
2024/04/02 13:01:42;;;;;;;0.20;0.10;;;;;;;;;;5109499;28;20203;-69
2024/04/02 13:04:08;;;;;;;0.20;0.10;;;;;;;;;;5109786;28;20590;-67
2024/04/02 13:06:35;;;;;;;0.20;0.10;;;;;;;;;;5109011;28;20612;-70
2024/04/02 13:09:01;;;;;;;0.20;0.10;;;;;;;;;;5110230;28;20182;-69
2024/04/02 13:11:28;;;;;;;0.20;0.10;;;;;;;;;;5109252;28;20201;-70
2024/04/02 13:13:54;;;;;;;0.20;0.10;;;;;;;;;;5108865;28;20204;-68
2024/04/02 13:16:21;;;;;;;0.20;0.10;;;;;;;;;;5108175;28;20555;-69
2024/04/02 13:18:47;;;;;;;0.20;0.10;;;;;;;;;;5114010;27;20215;-70
2024/04/02 13:21:14;;;;;;;0.20;0.10;;;;;;;;;;5108801;28;20219;-69
2024/04/02 13:23:40;;;;;;;0.20;0.10;;;;;;;;;;5104472;28;20185;-69
2024/04/02 13:26:13;;;;;;;0.20;0.10;;;;;;;;;;5106994;28;20195;-69
2024/04/02 13:28:39;;;;;;;0.20;0.10;;;;;;;;;;5101623;28;20239;-68
2024/04/02 13:31:09;;;;;;;0.20;0.10;;;;;;;;;;5109085;28;20198;-70
2024/04/02 13:33:35;;;;;;;0.20;0.10;;;;;;;;;;5105964;28;20209;-69
2024/04/02 13:36:08;;;;;;;0.20;0.10;;;;;;;;;;5105153;28;20205;-68
2024/04/02 13:38:34;;;;;;;0.20;0.10;;;;;;;;;;5106740;28;21065;-68
2024/04/02 13:41:01;;;;;;;0.20;0.10;;;;;;;;;;5105493;27;20235;-67
2024/04/02 13:43:28;;;;;;;0.20;0.10;;;;;;;;;;5103474;28;20174;-67
2024/04/02 13:45:55;;;;;;;0.20;0.10;;;;;;;;;;5103152;28;20313;-68
2024/04/02 13:48:21;;;;;;;0.20;0.10;;;;;;;;;;5109915;27;20177;-65
2024/04/02 13:50:47;;;;;;;0.20;0.10;;;;;;;;;;5102904;28;20250;-67
2024/04/02 13:53:13;;;;;;;0.20;0.10;;;;;;;;;;5109457;28;20204;-68
2024/04/02 13:55:39;;;;;;;0.20;0.10;;;;;;;;;;5108338;28;20633;-67
2024/04/02 13:58:05;;;;;;;0.20;0.10;;;;;;;;;;5110282;28;20177;-66
2024/04/02 14:00:31;;;;;;;0.20;0.10;;;;;;;;;;5108171;28;20189;-65
2024/04/02 14:02:57;;;;;;;0.20;0.10;;;;;;;;;;5107837;28;20641;-67
2024/04/02 14:05:23;;;;;;;0.20;0.10;;;;;;;;;;5107696;27;20185;-64
2024/04/02 14:07:52;;;;;;;0.20;0.10;;;;;;;;;;5099937;27;20772;-65
2024/04/02 14:10:18;;;;;;;0.20;0.10;;;;;;;;;;5112688;27;20253;-66
2024/04/02 14:12:44;;;;;;;0.20;0.10;;;;;;;;;;5108416;27;20842;-65
2024/04/02 14:15:10;;;;;;;0.20;0.10;;;;;;;;;;5108386;28;20209;-65
2024/04/02 14:17:38;;;;;;;0.20;0.10;;;;;;;;;;5108388;27;20743;-65
2024/04/02 14:20:06;;;;;;;0.20;0.10;;;;;;;;;;5109685;27;20189;-65
2024/04/02 14:22:32;;;;;;;0.20;0.10;;;;;;;;;;5130541;27;20280;-64
2024/04/02 14:24:58;;;;;;;0.20;0.10;;;;;;;;;;5125930;27;20172;-66
2024/04/02 14:27:24;;;;;;;0.20;0.10;;;;;;;;;;5131861;27;20187;-64
2024/04/02 14:29:50;;;;;;;0.20;0.10;;;;;;;;;;5128273;27;20213;-65
2024/04/02 14:32:16;;;;;;;0.20;0.10;;;;;;;;;;5126124;27;20688;-65
2024/04/02 14:34:41;;;;;;;0.20;0.00;;;;;;;;;;5128547;27;20204;-64
2024/04/02 14:37:07;;;;;;;0.20;0.10;;;;;;;;;;5128737;27;20221;-63
2024/04/02 14:39:33;;;;;;;0.20;0.10;;;;;;;;;;5127530;27;20551;-64
2024/04/02 14:41:59;;;;;;;0.20;0.10;;;;;;;;;;5128920;27;20196;-65
2024/04/02 14:44:25;;;;;;;0.20;0.10;;;;;;;;;;5129988;27;20272;-65